Time;durP1;ratioP1;P1;durP2;ratioP2;P2;SDS_P1;SDS_P2;PMS_P1;PMS_P2;Temp;Humidity;BMP_temperature;BMP_pressure;BME280_temperature;BME280_humidity;BME280_pressure;Samples;Min_cycle;Max_cycle;Signal;HPM_P1;HPM_P2
2021/03/12 00:02:54;;;;;;;5.83;2.20;;;;;;;6.16;70.11;99509.69;6217093;28;20252;-56
2021/03/12 00:06:16;;;;;;;4.50;2.00;;;;;;;6.19;71.00;99539.84;6214356;28;20329;-50
2021/03/12 00:09:37;;;;;;;3.37;1.57;;;;;;;6.40;69.80;99533.56;6215016;28;20237;-51
2021/03/12 00:12:57;;;;;;;5.00;1.90;;;;;;;6.46;69.46;99542.09;6217370;28;20257;-56
2021/03/12 00:16:18;;;;;;;9.60;2.57;;;;;;;6.44;69.26;99543.84;6218531;28;20241;-54
2021/03/12 00:19:38;;;;;;;4.37;1.60;;;;;;;6.38;69.50;99567.19;6216360;28;20237;-52
2021/03/12 00:23:00;;;;;;;8.03;2.73;;;;;;;6.47;68.85;99564.47;6214942;28;20245;-52
2021/03/12 00:26:20;;;;;;;3.97;1.50;;;;;;;6.36;68.81;99576.72;6224629;28;20617;-50
2021/03/12 00:29:41;;;;;;;5.13;2.53;;;;;;;6.27;69.19;99581.97;6213035;28;20233;-51
2021/03/12 00:33:02;;;;;;;4.17;1.63;;;;;;;6.43;68.95;99593.84;6207186;28;20229;-54
2021/03/12 00:36:24;;;;;;;5.43;1.90;;;;;;;6.63;67.51;99587.56;6203823;28;20225;-53
2021/03/12 00:39:45;;;;;;;5.67;2.07;;;;;;;6.19;68.81;99599.31;6212487;28;20572;-55
2021/03/12 00:43:08;;;;;;;2.57;1.33;;;;;;;6.24;68.66;99615.59;6205780;28;20237;-52
2021/03/12 00:46:29;;;;;;;5.77;1.80;;;;;;;6.23;68.64;99609.59;6203386;28;20249;-52
2021/03/12 00:49:50;;;;;;;3.80;1.87;;;;;;;6.43;67.58;99609.34;6212012;28;20233;-52
2021/03/12 00:53:10;;;;;;;5.00;2.77;;;;;;;6.18;68.95;99605.34;6214241;28;20229;-50
2021/03/12 00:56:32;;;;;;;4.23;1.53;;;;;;;6.17;69.77;99613.97;6201942;28;20617;-55
2021/03/12 00:59:56;;;;;;;4.63;1.70;;;;;;;6.30;69.06;99612.94;6204650;28;21796;-53
2021/03/12 01:03:17;;;;;;;4.00;2.00;;;;;;;6.27;69.09;99608.69;6213323;28;20229;-52
2021/03/12 01:06:45;;;;;;;5.47;2.40;;;;;;;6.76;67.51;99621.91;6196990;28;20857;-52
2021/03/12 01:10:08;;;;;;;7.03;2.63;;;;;;;6.54;68.42;99617.00;6204230;28;20309;-51
2021/03/12 01:13:31;;;;;;;4.23;1.93;;;;;;;6.26;68.84;99619.91;6195467;28;20252;-57
2021/03/12 01:16:52;;;;;;;6.07;2.47;;;;;;;6.14;69.71;99616.59;6206302;28;20304;-50
2021/03/12 01:20:16;;;;;;;5.63;2.03;;;;;;;6.39;68.63;99623.19;6204837;28;20237;-52
2021/03/12 01:23:37;;;;;;;3.37;2.07;;;;;;;6.28;68.77;99622.44;6204972;28;20264;-51
2021/03/12 01:26:59;;;;;;;7.07;2.47;;;;;;;6.23;69.17;99624.25;6205531;28;20240;-51
2021/03/12 01:30:23;;;;;;;6.13;2.00;;;;;;;6.26;68.84;99629.38;6210792;28;20255;-53
2021/03/12 01:33:44;;;;;;;4.77;1.63;;;;;;;6.18;69.24;99628.59;6186980;28;20236;-54
2021/03/12 01:37:05;;;;;;;3.23;1.80;;;;;;;6.34;68.43;99637.94;6199264;28;20229;-51
2021/03/12 01:40:36;;;;;;;6.90;3.20;;;;;;;6.35;67.96;99626.69;6205790;28;20241;-51
2021/03/12 01:43:57;;;;;;;5.73;2.67;;;;;;;6.38;68.04;99636.13;6202416;28;20244;-51
2021/03/12 01:47:22;;;;;;;6.53;1.70;;;;;;;6.33;67.83;99627.59;6203384;28;20252;-54
2021/03/12 01:50:46;;;;;;;6.73;2.37;;;;;;;6.27;68.13;99633.69;6209165;28;20320;-56
2021/03/12 01:54:07;;;;;;;5.20;2.67;;;;;;;6.20;68.44;99639.78;6213111;28;20229;-54
2021/03/12 01:57:28;;;;;;;6.77;2.07;;;;;;;6.08;68.71;99638.19;6202982;28;20225;-51
2021/03/12 02:00:59;;;;;;;4.47;2.00;;;;;;;6.07;68.39;99655.41;6208124;28;20264;-56
2021/03/12 02:04:32;;;;;;;4.27;2.17;;;;;;;6.28;68.20;99645.72;6200032;28;20225;-48
2021/03/12 02:07:59;;;;;;;6.57;2.43;;;;;;;6.19;68.54;99636.34;6222896;28;20635;-54
2021/03/12 02:11:26;;;;;;;9.73;3.13;;;;;;;6.24;68.24;99637.16;6216125;28;20609;-53
2021/03/12 02:14:54;;;;;;;7.77;3.00;;;;;;;6.18;68.84;99644.09;6206507;28;20272;-55
2021/03/12 02:18:20;;;;;;;5.07;2.33;;;;;;;6.29;68.32;99652.63;6207411;28;20229;-53
2021/03/12 02:21:50;;;;;;;8.97;3.23;;;;;;;5.95;69.14;99677.88;6204750;28;20328;-53
2021/03/12 02:25:14;;;;;;;10.13;2.70;;;;;;;6.15;68.97;99662.25;6209912;28;20229;-53
2021/03/12 02:28:49;;;;;;;10.37;3.17;;;;;;;6.20;68.49;99658.72;6206142;28;20221;-54
2021/03/12 02:32:15;;;;;;;8.93;4.07;;;;;;;6.24;68.40;99669.91;6207297;28;20236;-54
2021/03/12 02:35:39;;;;;;;13.17;2.43;;;;;;;6.21;68.40;99680.28;6206897;28;20524;-56
2021/03/12 02:39:16;;;;;;;7.30;3.53;;;;;;;6.37;68.38;99666.31;6217300;28;20249;-57
2021/03/12 02:42:38;;;;;;;5.93;2.67;;;;;;;6.10;69.03;99681.22;6208616;28;20233;-54
2021/03/12 02:46:00;;;;;;;7.17;2.83;;;;;;;6.45;68.09;99677.44;6210942;28;20377;-56
2021/03/12 02:49:25;;;;;;;11.20;2.90;;;;;;;6.32;68.32;99693.97;6212999;28;20233;-55
2021/03/12 02:52:47;;;;;;;4.57;2.80;;;;;;;6.14;69.62;99681.22;6211333;28;20240;-54
2021/03/12 02:56:12;;;;;;;5.30;3.00;;;;;;;6.26;69.52;99696.59;6203385;28;20245;-56
2021/03/12 02:59:36;;;;;;;9.03;3.37;;;;;;;6.44;69.17;99695.59;6209541;28;20315;-54
2021/03/12 03:03:09;;;;;;;8.30;3.47;;;;;;;6.25;69.33;99707.81;6218936;28;20240;-52
2021/03/12 03:06:51;;;;;;;10.43;4.70;;;;;;;6.23;70.29;99710.41;6210170;28;20229;-51
2021/03/12 03:10:12;;;;;;;12.60;4.43;;;;;;;6.20;70.37;99707.84;6215459;28;20225;-56
2021/03/12 03:13:35;;;;;;;13.20;4.53;;;;;;;6.60;69.11;99715.22;6213539;28;20508;-55
2021/03/12 03:16:58;;;;;;;7.33;3.87;;;;;;;6.44;69.58;99724.88;6209828;28;20658;-54
2021/03/12 03:20:20;;;;;;;11.00;4.37;;;;;;;6.47;70.02;99730.00;6224813;28;20344;-54
2021/03/12 03:23:45;;;;;;;12.30;4.23;;;;;;;6.40;70.27;99728.38;6214522;28;20229;-50
2021/03/12 03:27:07;;;;;;;10.27;3.83;;;;;;;6.48;69.59;99731.72;6214628;28;20659;-51
2021/03/12 03:30:27;;;;;;;14.87;5.17;;;;;;;6.58;69.48;99739.41;6213449;28;20225;-54
2021/03/12 03:33:55;;;;;;;12.23;5.43;;;;;;;6.29;69.89;99737.94;6214648;28;20276;-55
2021/03/12 03:37:16;;;;;;;10.33;4.47;;;;;;;6.41;69.38;99735.25;6209717;28;20315;-53
2021/03/12 03:40:38;;;;;;;10.20;4.33;;;;;;;6.32;70.18;99743.09;6206702;28;20232;-56
2021/03/12 03:44:00;;;;;;;12.50;5.73;;;;;;;6.35;69.33;99745.66;6217318;28;20257;-55
2021/03/12 03:47:28;;;;;;;9.17;4.33;;;;;;;6.63;68.97;99753.13;6202785;28;20316;-55
2021/03/12 03:50:49;;;;;;;10.50;4.43;;;;;;;6.43;69.17;99753.34;6204173;28;20265;-55
2021/03/12 03:54:13;;;;;;;7.33;3.87;;;;;;;6.29;69.29;99753.47;6207436;28;20606;-55
2021/03/12 03:57:36;;;;;;;12.80;4.40;;;;;;;6.63;67.67;99756.59;6223658;28;20229;-55
2021/03/12 04:00:58;;;;;;;14.37;5.10;;;;;;;6.48;67.60;99755.00;6207159;28;20222;-55
2021/03/12 04:04:21;;;;;;;10.73;4.67;;;;;;;6.37;67.81;99768.91;6209817;28;20222;-54
2021/03/12 04:07:45;;;;;;;11.50;5.23;;;;;;;6.60;66.71;99766.97;6212560;28;20709;-55
2021/03/12 04:11:07;;;;;;;11.13;4.77;;;;;;;6.43;66.69;99789.53;6205667;28;20242;-55
2021/03/12 04:14:31;;;;;;;10.63;4.90;;;;;;;6.60;65.75;99784.22;6210733;28;20229;-56
2021/03/12 04:17:52;;;;;;;8.83;4.37;;;;;;;6.98;64.45;99785.56;6211552;28;20609;-55
2021/03/12 04:21:16;;;;;;;7.33;3.70;;;;;;;6.79;64.96;99793.53;6212413;28;20233;-55
2021/03/12 04:24:38;;;;;;;5.03;3.17;;;;;;;6.64;64.51;99802.28;6210693;28;20527;-53
2021/03/12 04:28:05;;;;;;;11.03;3.17;;;;;;;6.85;63.43;99803.81;6213559;28;20241;-56
2021/03/12 04:31:26;;;;;;;9.13;4.47;;;;;;;6.83;63.63;99808.16;6204922;28;20236;-54
2021/03/12 04:34:49;;;;;;;8.17;2.80;;;;;;;6.72;64.29;99822.06;6207113;28;20277;-56
2021/03/12 04:38:12;;;;;;;10.87;4.30;;;;;;;6.80;63.99;99826.28;6214020;28;20233;-54
2021/03/12 04:41:33;;;;;;;9.07;3.93;;;;;;;6.57;64.56;99830.81;6222083;28;20225;-55
2021/03/12 04:44:56;;;;;;;10.00;3.93;;;;;;;7.01;63.31;99834.72;6203317;28;20233;-53
2021/03/12 04:48:17;;;;;;;12.77;4.30;;;;;;;6.85;63.42;99840.06;6207047;28;20233;-50
2021/03/12 04:51:43;;;;;;;9.13;3.10;;;;;;;6.67;63.84;99848.00;6195952;28;20257;-53
2021/03/12 04:55:06;;;;;;;9.37;3.50;;;;;;;7.00;62.44;99848.53;6204015;28;20226;-50
2021/03/12 04:58:26;;;;;;;10.73;3.93;;;;;;;7.07;62.31;99860.53;6206840;28;20245;-53
2021/03/12 05:01:48;;;;;;;7.47;3.23;;;;;;;6.79;63.29;99871.16;6212496;28;20238;-56
2021/03/12 05:05:10;;;;;;;12.63;4.90;;;;;;;6.99;62.38;99878.75;6209266;28;20276;-52
2021/03/12 05:08:34;;;;;;;13.47;4.63;;;;;;;7.00;62.52;99874.41;6210847;28;20246;-54
2021/03/12 05:12:05;;;;;;;11.33;4.83;;;;;;;6.90;62.55;99874.53;6210232;28;20241;-55
2021/03/12 05:15:28;;;;;;;13.97;4.03;;;;;;;6.93;62.51;99885.72;6202721;28;20383;-52
2021/03/12 05:18:49;;;;;;;11.10;3.90;;;;;;;6.82;62.67;99891.81;6205276;28;20233;-56
2021/03/12 05:22:10;;;;;;;14.10;3.33;;;;;;;6.33;63.55;99893.94;6213678;28;20713;-55
2021/03/12 05:25:31;;;;;;;10.27;3.40;;;;;;;6.60;62.86;99896.31;6205217;28;20249;-55
2021/03/12 05:28:53;;;;;;;11.10;4.27;;;;;;;6.32;63.94;99903.44;6195101;28;20229;-55
2021/03/12 05:32:15;;;;;;;7.83;3.10;;;;;;;6.81;62.09;99907.38;6207512;28;20225;-57
2021/03/12 05:35:38;;;;;;;12.77;4.40;;;;;;;6.48;62.66;99917.97;6203655;28;20221;-55
2021/03/12 05:38:58;;;;;;;10.67;5.00;;;;;;;6.70;62.24;99913.50;6207003;28;20229;-56
2021/03/12 05:42:22;;;;;;;13.90;4.23;;;;;;;6.94;61.54;99927.13;6207267;28;20229;-51
2021/03/12 05:45:44;;;;;;;9.30;3.67;;;;;;;6.44;62.94;99930.94;6204173;28;21071;-55
2021/03/12 05:49:08;;;;;;;15.93;6.80;;;;;;;6.50;63.03;99930.91;6213431;28;20244;-51
2021/03/12 05:52:30;;;;;;;10.83;4.33;;;;;;;6.43;62.91;99934.38;6208199;28;20229;-56
2021/03/12 05:55:52;;;;;;;7.77;3.93;;;;;;;6.26;63.23;99939.66;6186131;28;20602;-54
2021/03/12 05:59:15;;;;;;;12.90;3.90;;;;;;;6.49;61.98;99948.16;6205827;28;20236;-56
2021/03/12 06:02:41;;;;;;;10.63;3.97;;;;;;;6.64;61.58;99944.59;6199905;28;20927;-54
2021/03/12 06:06:03;;;;;;;8.57;4.07;;;;;;;6.37;62.14;99955.97;6198657;28;20282;-57
2021/03/12 06:09:28;;;;;;;9.53;3.30;;;;;;;6.65;60.83;99960.97;6210015;28;20290;-55
2021/03/12 06:12:50;;;;;;;9.53;4.00;;;;;;;6.69;60.89;99973.03;6214178;28;20248;-55
2021/03/12 06:16:21;;;;;;;9.77;3.57;;;;;;;6.82;59.97;99966.03;6220038;28;20228;-54
2021/03/12 06:19:55;;;;;;;15.63;4.03;;;;;;;6.77;60.35;99970.41;6205160;28;20228;-57
2021/03/12 06:23:33;;;;;;;7.43;3.10;;;;;;;6.62;60.52;99987.72;6204288;28;20233;-55
2021/03/12 06:27:00;;;;;;;15.17;4.30;;;;;;;6.37;60.97;99992.19;6205171;28;20244;-55
2021/03/12 06:30:32;;;;;;;10.23;3.73;;;;;;;6.54;60.45;99983.47;6210683;28;20233;-56
2021/03/12 06:34:13;;;;;;;7.87;3.17;;;;;;;6.64;60.33;99998.06;6211625;28;20224;-51
2021/03/12 06:37:52;;;;;;;8.50;4.80;;;;;;;6.58;61.09;100006.72;6195349;28;20237;-52
2021/03/12 06:41:35;;;;;;;9.77;3.23;;;;;;;6.24;62.13;100016.38;6204384;28;20357;-52
2021/03/12 06:45:01;;;;;;;6.70;3.80;;;;;;;6.36;62.27;100018.03;6204778;28;20253;-56
2021/03/12 06:48:24;;;;;;;9.43;3.90;;;;;;;6.50;61.92;100022.28;6203672;28;20237;-58
2021/03/12 06:51:56;;;;;;;8.80;3.43;;;;;;;6.29;62.17;100024.97;6198229;28;20299;-56
2021/03/12 06:55:17;;;;;;;9.00;3.70;;;;;;;6.47;61.64;100029.19;6207246;28;20225;-57
2021/03/12 06:58:58;;;;;;;8.40;3.83;;;;;;;6.48;61.68;100015.41;6199319;28;20236;-57
2021/03/12 07:02:29;;;;;;;8.83;3.60;;;;;;;6.34;61.53;100046.50;6207491;28;20950;-55
2021/03/12 07:06:01;;;;;;;15.63;5.00;;;;;;;6.62;61.11;100054.13;6206903;28;20237;-54
2021/03/12 07:09:28;;;;;;;8.43;3.73;;;;;;;6.45;61.07;100051.63;6209522;28;20233;-57
2021/03/12 07:13:01;;;;;;;11.23;3.53;;;;;;;6.43;61.07;100064.56;6199316;28;20539;-57
2021/03/12 07:16:26;;;;;;;8.73;3.17;;;;;;;6.35;61.10;100066.31;6204345;28;20558;-54
2021/03/12 07:19:48;;;;;;;11.53;4.80;;;;;;;6.64;60.50;100067.94;6203222;28;20245;-53
2021/03/12 07:23:09;;;;;;;14.80;3.70;;;;;;;6.53;60.81;100074.88;6205584;28;22415;-54
2021/03/12 07:26:41;;;;;;;6.90;2.90;;;;;;;6.27;60.72;100084.44;6198803;28;20221;-53
2021/03/12 07:30:06;;;;;;;11.30;4.43;;;;;;;6.95;59.19;100078.97;6198726;28;20514;-54
2021/03/12 07:33:35;;;;;;;11.13;3.30;;;;;;;6.49;60.23;100090.44;6194733;28;20228;-53
2021/03/12 07:37:01;;;;;;;9.80;3.40;;;;;;;6.39;60.82;100088.72;6208572;28;20240;-54
2021/03/12 07:40:25;;;;;;;8.73;3.10;;;;;;;6.45;60.83;100093.88;6193001;28;20234;-57
2021/03/12 07:43:47;;;;;;;8.60;3.67;;;;;;;6.34;60.87;100094.78;6192059;28;20244;-56
2021/03/12 07:47:40;;;;;;;11.43;3.37;;;;;;;6.91;59.47;100108.34;6197882;28;20237;-55
2021/03/12 07:51:09;;;;;;;8.87;3.03;;;;;;;6.94;59.07;100102.28;6200032;28;20233;-55
2021/03/12 07:54:50;;;;;;;15.97;4.20;;;;;;;6.64;59.95;100110.19;6196008;28;20787;-55
2021/03/12 07:58:56;;;;;;;8.10;3.33;;;;;;;6.76;59.78;100111.84;6208501;28;20272;-56
2021/03/12 08:02:56;;;;;;;12.60;3.07;;;;;;;6.94;59.59;100112.63;6189976;28;20236;-51
2021/03/12 08:06:36;;;;;;;13.33;3.17;;;;;;;6.82;59.64;100119.56;6195202;28;20253;-56
2021/03/12 08:10:17;;;;;;;10.53;3.60;;;;;;;7.26;59.07;100112.44;6211631;28;20233;-57
2021/03/12 08:14:09;;;;;;;7.90;4.30;;;;;;;6.66;60.30;100125.69;6197931;28;20256;-50
2021/03/12 08:17:32;;;;;;;11.17;2.73;;;;;;;6.82;59.91;100124.75;6198213;28;20978;-54
2021/03/12 08:21:33;;;;;;;7.20;2.60;;;;;;;6.97;59.26;100133.34;6201256;28;20229;-53
2021/03/12 08:25:11;;;;;;;9.30;2.90;;;;;;;7.28;58.39;100119.31;6204503;28;20222;-55
2021/03/12 08:28:46;;;;;;;9.30;2.80;;;;;;;6.87;59.41;100128.19;6203458;28;20242;-57
2021/03/12 08:32:40;;;;;;;8.83;3.40;;;;;;;6.78;59.41;100128.22;6205060;28;20238;-55
2021/03/12 08:36:27;;;;;;;7.33;2.67;;;;;;;6.98;59.53;100151.44;6201674;28;20245;-54
2021/03/12 08:40:21;;;;;;;5.17;2.90;;;;;;;6.84;59.88;100138.56;6207034;28;20844;-55
2021/03/12 08:44:01;;;;;;;6.00;3.33;;;;;;;6.53;61.23;100162.81;6208505;28;20237;-53
2021/03/12 08:47:48;;;;;;;9.00;3.33;;;;;;;7.20;59.32;100144.41;6202128;28;20229;-53
2021/03/12 08:51:13;;;;;;;3.83;2.73;;;;;;;7.10;59.31;100142.75;6203133;28;20260;-55
2021/03/12 08:54:38;;;;;;;7.27;2.70;;;;;;;7.27;58.41;100179.78;6210770;28;20617;-52
2021/03/12 08:58:12;;;;;;;6.13;2.70;;;;;;;7.03;58.69;100151.41;6203054;28;20221;-54
2021/03/12 09:01:36;;;;;;;7.97;2.37;;;;;;;7.62;57.29;100142.41;6204489;28;20248;-56
2021/03/12 09:05:24;;;;;;;6.50;2.60;;;;;;;7.55;57.67;100158.88;6216324;28;20244;-55
2021/03/12 09:09:04;;;;;;;10.83;3.40;;;;;;;7.67;57.55;100169.13;6206500;28;20233;-55
2021/03/12 09:12:43;;;;;;;9.23;1.90;;;;;;;7.74;56.47;100138.84;6205453;28;20240;-54
2021/03/12 09:16:10;;;;;;;6.27;2.77;;;;;;;8.34;54.99;100145.22;6206448;28;20245;-53
2021/03/12 09:19:37;;;;;;;8.03;3.47;;;;;;;7.78;55.27;100170.81;6209434;28;20672;-54
2021/03/12 09:23:05;;;;;;;9.57;3.97;;;;;;;7.82;55.16;100160.38;6202274;28;20229;-56
2021/03/12 09:26:35;;;;;;;9.43;3.20;;;;;;;8.03;54.48;100159.34;6214736;28;20248;-57
2021/03/12 09:30:24;;;;;;;9.53;3.80;;;;;;;7.46;56.32;100164.09;6203053;28;20229;-52
2021/03/12 09:33:50;;;;;;;6.40;1.83;;;;;;;7.20;57.26;100167.72;6222132;28;20230;-55
2021/03/12 09:37:39;;;;;;;4.80;2.70;;;;;;;7.39;56.23;100158.13;6205571;28;20320;-51
2021/03/12 09:41:18;;;;;;;8.60;2.57;;;;;;;7.15;56.04;100194.50;6207258;28;20233;-53
2021/03/12 09:44:46;;;;;;;10.93;3.53;;;;;;;7.63;55.65;100159.66;6203064;28;20746;-53
2021/03/12 09:48:12;;;;;;;9.87;4.23;;;;;;;7.54;56.33;100143.31;6204647;28;20233;-54
2021/03/12 09:51:34;;;;;;;9.23;4.63;;;;;;;7.72;56.19;100165.66;6214072;28;20241;-51
2021/03/12 09:54:58;;;;;;;11.80;3.73;;;;;;;8.25;54.31;100159.97;6203678;28;20524;-51
2021/03/12 09:58:20;;;;;;;7.13;2.83;;;;;;;8.21;53.91;100170.41;6200971;28;20236;-54
2021/03/12 10:02:10;;;;;;;5.53;2.57;;;;;;;8.62;54.16;100175.19;6202143;28;20229;-57
2021/03/12 10:06:05;;;;;;;9.23;3.30;;;;;;;8.76;53.65;100172.47;6198456;28;20261;-57
2021/03/12 10:09:34;;;;;;;6.47;3.50;;;;;;;8.95;52.51;100160.09;6173704;28;20232;-53
2021/03/12 10:13:07;;;;;;;9.67;4.17;;;;;;;8.55;53.75;100167.50;6204755;28;20332;-56
2021/03/12 10:16:36;;;;;;;8.93;3.63;;;;;;;8.37;54.07;100171.13;6198810;28;20225;-52
2021/03/12 10:20:02;;;;;;;10.97;4.53;;;;;;;8.30;54.35;100165.16;6203269;28;20234;-57
2021/03/12 10:23:24;;;;;;;11.03;4.50;;;;;;;8.16;54.56;100167.00;6200293;28;20232;-57
2021/03/12 10:26:45;;;;;;;14.93;3.90;;;;;;;8.21;53.82;100167.81;6205870;28;20216;-56
2021/03/12 10:30:09;;;;;;;6.33;2.80;;;;;;;7.70;55.19;100189.00;6205125;28;20514;-52
2021/03/12 10:33:30;;;;;;;8.97;3.57;;;;;;;7.68;54.62;100163.09;6207290;28;20861;-54
2021/03/12 10:37:10;;;;;;;8.30;3.93;;;;;;;7.97;54.53;100172.38;6204965;28;20549;-58
2021/03/12 10:40:35;;;;;;;5.30;3.53;;;;;;;8.43;52.82;100171.09;6200743;28;20844;-53
2021/03/12 10:43:57;;;;;;;12.73;3.50;;;;;;;8.61;51.99;100164.84;6205339;28;20233;-51
2021/03/12 10:47:19;;;;;;;14.90;3.77;;;;;;;8.57;52.32;100176.13;6204289;28;20233;-53
2021/03/12 10:50:40;;;;;;;10.13;2.93;;;;;;;9.82;48.32;100175.31;6202357;28;20229;-55
2021/03/12 10:54:00;;;;;;;5.90;3.00;;;;;;;8.72;51.28;100162.97;6200784;28;20642;-57
2021/03/12 10:57:35;;;;;;;11.63;4.47;;;;;;;9.56;49.10;100160.97;6202910;28;20263;-57
2021/03/12 11:01:07;;;;;;;13.03;3.87;;;;;;;8.91;51.09;100157.56;6206909;28;20237;-54
2021/03/12 11:04:28;;;;;;;8.83;3.50;;;;;;;8.58;51.96;100164.88;6202901;28;20225;-53
2021/03/12 11:07:49;;;;;;;6.00;3.30;;;;;;;9.33;50.48;100147.47;6205117;28;20814;-57
2021/03/12 11:11:14;;;;;;;18.57;5.93;;;;;;;8.65;52.66;100158.75;6203322;28;20605;-57
2021/03/12 11:14:34;;;;;;;6.10;3.83;;;;;;;9.36;52.58;100139.63;6192394;28;20799;-49
2021/03/12 11:17:55;;;;;;;7.33;3.70;;;;;;;8.61;52.00;100144.09;6209468;28;20861;-55
2021/03/12 11:21:16;;;;;;;7.47;3.97;;;;;;;8.56;52.29;100156.25;6201991;28;20222;-52
2021/03/12 11:24:37;;;;;;;8.37;4.33;;;;;;;8.50;52.31;100126.03;6204445;28;20324;-53
2021/03/12 11:27:58;;;;;;;13.73;5.83;;;;;;;8.38;52.49;100128.75;6202350;28;20499;-56
2021/03/12 11:31:19;;;;;;;9.80;4.93;;;;;;;8.48;52.43;100138.16;6211163;28;20248;-55
2021/03/12 11:34:39;;;;;;;8.30;4.53;;;;;;;8.56;52.23;100144.13;6204286;28;20335;-53
2021/03/12 11:38:01;;;;;;;9.93;4.97;;;;;;;8.53;52.39;100131.19;6193009;28;20669;-55
2021/03/12 11:41:21;;;;;;;9.03;5.10;;;;;;;8.64;52.21;100136.25;6203877;28;20236;-57
2021/03/12 11:44:42;;;;;;;6.03;3.77;;;;;;;10.33;47.77;100138.03;6195530;28;20320;-56
2021/03/12 11:48:03;;;;;;;7.60;4.60;;;;;;;10.41;47.40;100138.72;6207976;28;20238;-51
2021/03/12 11:51:24;;;;;;;8.77;3.83;;;;;;;12.57;42.64;100135.41;6213994;28;20237;-57
2021/03/12 11:54:45;;;;;;;7.37;3.53;;;;;;;11.80;44.23;100128.72;6201694;28;20226;-55
2021/03/12 11:58:05;;;;;;;5.13;3.57;;;;;;;11.16;45.11;100129.34;6203761;28;20242;-56
2021/03/12 12:01:26;;;;;;;9.70;4.67;;;;;;;10.58;46.99;100123.63;6212861;28;20238;-55
2021/03/12 12:04:47;;;;;;;7.37;4.40;;;;;;;9.67;49.30;100127.00;6206066;28;20225;-55
2021/03/12 12:08:07;;;;;;;7.70;3.40;;;;;;;9.45;50.01;100123.91;6201145;28;20521;-57
2021/03/12 12:11:29;;;;;;;9.37;5.40;;;;;;;8.97;51.29;100121.97;6204452;28;20234;-54
2021/03/12 12:14:50;;;;;;;10.30;4.20;;;;;;;8.74;50.48;100117.06;6209667;28;20260;-54
2021/03/12 12:18:11;;;;;;;4.87;2.93;;;;;;;8.43;51.17;100121.78;6209243;28;20260;-53
2021/03/12 12:21:32;;;;;;;9.23;3.70;;;;;;;9.24;49.06;100106.88;6210545;28;20233;-53
2021/03/12 12:24:55;;;;;;;6.80;2.73;;;;;;;8.93;49.63;100114.25;6201185;28;20257;-57
2021/03/12 12:28:17;;;;;;;5.70;2.70;;;;;;;8.96;49.85;100096.03;6213300;28;20237;-56
2021/03/12 12:31:38;;;;;;;6.13;3.07;;;;;;;9.27;48.85;100099.06;6210311;28;20317;-55
2021/03/12 12:34:58;;;;;;;6.13;2.53;;;;;;;9.44;48.20;100090.97;6212765;28;20241;-56
2021/03/12 12:38:19;;;;;;;7.33;2.47;;;;;;;9.05;49.52;100108.88;6203185;28;20252;-57
2021/03/12 12:41:40;;;;;;;6.30;3.17;;;;;;;9.63;47.61;100105.41;6207660;28;20222;-59
2021/03/12 12:45:03;;;;;;;6.57;2.07;;;;;;;9.04;48.70;100083.81;6207461;28;20522;-57
2021/03/12 12:48:24;;;;;;;7.70;3.43;;;;;;;9.18;47.41;100088.78;6200541;28;20221;-55
2021/03/12 12:51:45;;;;;;;7.07;3.00;;;;;;;8.75;48.58;100043.53;6204084;28;20497;-54
2021/03/12 12:55:09;;;;;;;5.00;2.23;;;;;;;8.72;48.78;100092.03;6201908;28;20263;-56
2021/03/12 12:58:29;;;;;;;11.27;2.70;;;;;;;8.98;49.18;100061.38;6199776;28;20994;-55
2021/03/12 13:01:51;;;;;;;5.80;2.20;;;;;;;8.84;49.86;100086.66;6200302;28;20233;-55
2021/03/12 13:05:12;;;;;;;5.87;2.47;;;;;;;8.77;50.55;100070.31;6201027;28;20249;-54
2021/03/12 13:08:33;;;;;;;9.80;3.90;;;;;;;8.90;50.51;100062.34;6206026;28;20237;-51
2021/03/12 13:11:53;;;;;;;8.60;2.63;;;;;;;8.97;50.66;100051.84;6208131;28;20319;-57
2021/03/12 13:15:14;;;;;;;6.30;2.33;;;;;;;8.52;52.21;100056.81;6203524;28;20233;-54
2021/03/12 13:18:35;;;;;;;5.27;3.33;;;;;;;8.52;52.29;100050.75;6205912;28;20228;-55
2021/03/12 13:21:57;;;;;;;7.70;3.70;;;;;;;9.17;51.10;100035.97;6203850;28;20249;-54
2021/03/12 13:25:18;;;;;;;9.77;3.10;;;;;;;8.92;51.31;100045.88;6198661;28;20840;-52
2021/03/12 13:28:41;;;;;;;6.57;2.27;;;;;;;8.94;50.89;100045.88;6206043;28;20242;-57
2021/03/12 13:32:01;;;;;;;11.27;2.63;;;;;;;9.09;50.52;100030.03;6207065;28;20237;-54
2021/03/12 13:35:23;;;;;;;8.90;3.03;;;;;;;9.19;49.66;100016.03;6212692;28;20237;-56
2021/03/12 13:38:43;;;;;;;7.63;3.17;;;;;;;9.36;49.20;100014.88;6205605;28;20229;-56
2021/03/12 13:42:04;;;;;;;9.87;3.67;;;;;;;8.89;50.02;100006.13;6205175;28;20237;-56
2021/03/12 13:45:25;;;;;;;7.43;3.10;;;;;;;8.81;50.34;100001.88;6208555;28;20531;-51
2021/03/12 13:48:46;;;;;;;12.47;3.30;;;;;;;9.14;49.53;99989.25;6209384;28;20233;-55
2021/03/12 13:52:07;;;;;;;9.43;2.63;;;;;;;8.92;50.12;99987.88;6206021;28;20237;-55
2021/03/12 13:55:28;;;;;;;10.53;2.47;;;;;;;8.89;50.54;99972.38;6201263;28;20238;-56
2021/03/12 13:58:49;;;;;;;9.90;3.10;;;;;;;9.12;49.76;99970.25;6202952;28;20340;-52
2021/03/12 14:02:10;;;;;;;5.53;2.50;;;;;;;9.29;49.52;99976.91;6200585;28;20237;-55
2021/03/12 14:05:30;;;;;;;8.27;3.20;;;;;;;9.63;49.25;99952.03;6212194;28;20237;-56
2021/03/12 14:08:52;;;;;;;7.83;3.40;;;;;;;9.86;48.83;99954.16;6205693;28;20681;-56
2021/03/12 14:12:14;;;;;;;10.43;3.10;;;;;;;9.06;49.44;99946.97;6207675;28;20241;-55
2021/03/12 14:15:34;;;;;;;13.87;2.83;;;;;;;8.66;50.86;99960.56;6194066;28;20229;-54
2021/03/12 14:18:58;;;;;;;7.87;2.70;;;;;;;8.58;53.41;99993.59;6203530;28;20573;-57
2021/03/12 14:22:18;;;;;;;9.07;3.47;;;;;;;7.52;62.44;100013.78;6213055;28;20229;-58
2021/03/12 14:25:39;;;;;;;17.60;3.77;;;;;;;7.27;64.75;99997.63;6215803;28;20225;-55
2021/03/12 14:29:18;;;;;;;8.53;3.40;;;;;;;6.95;65.55;100042.72;6209421;28;20229;-52
2021/03/12 14:32:39;;;;;;;7.73;2.80;;;;;;;6.86;68.60;99997.06;6207927;28;20499;-55
2021/03/12 14:36:00;;;;;;;9.23;3.13;;;;;;;6.46;70.44;99976.63;6211719;28;20237;-56
2021/03/12 14:39:20;;;;;;;8.60;3.00;;;;;;;6.48;70.39;99974.88;6212907;28;20248;-54
2021/03/12 14:42:42;;;;;;;8.47;3.00;;;;;;;6.47;70.36;99998.16;6188722;28;20634;-52
2021/03/12 14:46:03;;;;;;;5.97;2.47;;;;;;;6.45;72.20;99984.38;6203280;28;20511;-52
2021/03/12 14:49:34;;;;;;;8.90;3.43;;;;;;;6.53;72.97;99981.75;6213325;28;20240;-54
2021/03/12 14:52:55;;;;;;;12.90;4.30;;;;;;;6.61;72.59;99959.28;6210108;28;20229;-51
2021/03/12 14:56:15;;;;;;;17.57;5.00;;;;;;;6.63;71.59;99950.66;6211391;28;20328;-54
2021/03/12 14:59:39;;;;;;;8.47;4.07;;;;;;;6.84;70.82;99946.16;6213822;28;20229;-53
2021/03/12 15:02:59;;;;;;;7.97;3.17;;;;;;;6.78;70.33;99936.72;6213999;28;20266;-56
2021/03/12 15:06:20;;;;;;;10.23;4.10;;;;;;;7.06;70.25;99936.53;6206934;28;20241;-55
2021/03/12 15:09:40;;;;;;;8.43;3.83;;;;;;;7.15;69.68;99915.69;6195809;28;20337;-55
2021/03/12 15:13:02;;;;;;;11.53;5.03;;;;;;;7.15;69.41;99917.44;6215967;28;20259;-55
2021/03/12 15:16:23;;;;;;;9.23;3.23;;;;;;;7.46;68.17;99898.13;6211708;28;20233;-51
2021/03/12 15:19:44;;;;;;;6.63;3.03;;;;;;;7.57;67.13;99907.50;6230957;28;20283;-56
2021/03/12 15:23:06;;;;;;;14.73;4.20;;;;;;;7.71;66.14;99902.16;6215684;28;20250;-56
2021/03/12 15:26:28;;;;;;;5.13;2.53;;;;;;;7.56;65.35;99904.06;6198772;28;20229;-54
2021/03/12 15:29:48;;;;;;;6.43;2.40;;;;;;;7.68;64.23;99888.38;6218607;28;20244;-57
2021/03/12 15:33:09;;;;;;;6.93;2.03;;;;;;;7.64;64.72;99907.44;6205385;28;20233;-53
2021/03/12 15:36:30;;;;;;;10.67;1.93;;;;;;;7.67;63.73;99888.38;6214175;28;20249;-56
2021/03/12 15:40:12;;;;;;;5.40;2.23;;;;;;;7.86;63.74;99889.03;6207347;28;20308;-55
2021/03/12 15:43:33;;;;;;;5.20;2.87;;;;;;;8.15;62.88;99887.78;6209414;28;20614;-54
2021/03/12 15:47:00;;;;;;;4.53;2.87;;;;;;;8.11;62.22;99875.75;6205718;28;20229;-53
2021/03/12 15:50:23;;;;;;;8.37;2.53;;;;;;;8.31;61.32;99870.25;6214227;28;20256;-56
2021/03/12 15:53:43;;;;;;;10.97;3.47;;;;;;;8.23;61.51;99867.78;6217514;28;20663;-56
2021/03/12 15:57:05;;;;;;;6.40;2.17;;;;;;;8.07;61.34;99860.22;6212154;28;20237;-56
2021/03/12 16:00:51;;;;;;;7.30;2.27;;;;;;;8.20;61.19;99857.44;6212225;28;20236;-51
2021/03/12 16:04:12;;;;;;;7.80;3.23;;;;;;;8.35;60.86;99849.41;6212586;28;20229;-53
2021/03/12 16:07:34;;;;;;;8.67;3.07;;;;;;;8.35;60.97;99857.22;6203108;28;20226;-54
2021/03/12 16:10:55;;;;;;;9.10;2.80;;;;;;;8.12;61.28;99834.19;6209619;28;20241;-54
2021/03/12 16:14:15;;;;;;;5.40;2.77;;;;;;;8.53;59.99;99843.16;6208428;28;20244;-58